EDDHENKR

Guest
Details From EDDH - Hamburg
To ENKR - Hoybuktmoen
Flight Number -
Tags Generated
Created
Modified
Stats Distance 1,108 nm / 2,051 km
Max Altitude 0 ft / 0 m
Waypoints 7
Social Downloads 3
Likes 0
Share VATSIM

Download

Looking for another format? Having issues loading an existing format? Contact us
Advertisement - Login to hide

Notes

Generated

Route

EDDH TOPLA LH OD ABKUR KIK ENKR

ID Type Via Altitude Latitude Longitude Leg Dist Tot Dist Heading (true) Name
O EDDH APT - 0 ft / 0 m 53.65441˚ 9.97521˚ - 0 nm - -
TOPLA FIX - 0 ft / 0 m 57.13586˚ 12.33894˚ 224 nm 224 nm 20° / 22° -
LH NDB - 0 ft / 0 m 60.15139˚ 15.12361˚ 200 nm 424 nm 24° / 27° Ludvika NDB
OD NDB - 0 ft / 0 m 63.43703˚ 18.88711˚ 224 nm 649 nm 27° / 30° Ornskoldsvik NDB
ABKUR FIX - 0 ft / 0 m 66.96000˚ 24.24556˚ 250 nm 900 nm 30° / 35° -
KIK VOR - 0 ft / 0 m 69.72379˚ 29.86911˚ 207 nm 1107 nm 34° / 40° KIRKENES VOR-DME
O ENKR APT - 0 ft / 0 m 69.72218˚ 29.86794˚ 0 nm 1107 nm 194° / 194° -

Altitude Profile

Advertisement - Login to hide

Weather


0- 5 10 15 20 25 30 35+ Temperature / ° C

Clouds and Precipitation
Forecast for 2018-05-24 18:00 UTC. Updated 5 hours ago

Ground ~20,000 ft ~40,000 ft Winds

EDDH

Details ICAO EDDH (HAM)
Name Hamburg
Region Germany - Civil
Timezone Europe/Berlin (UTC+2.0)
Stats Elevation 53 ft / 16 m (AMSL)
Location 53.633665° 9.985235°
Runways 2
Magnetic Variation 2.848° E

METAR

EDDH 242220Z 06007KT CAVOK 15/09 Q1022 NOSIG

Decode

TAF

TAF EDDH 241700Z 2418/2524 07013KT CAVOK BECMG 2418/2420 07008KT BECMG 2507/2510 08013KT PROB30 TEMPO 2510/2518 07015G25KT BECMG 2518/2520 06007KT

Decode

Departure Runways

ID Width Length Bearing (true) Bearing (mag) Surface Threshold Offset Overrun Length
05 151 ft / 46 m 10,647 ft / 3,245 m 50.18° 47.33° Asphalt 978 ft / 298 m 194 ft / 59 m
15 151 ft / 46 m 12,013 ft / 3,662 m 152.89° 150.04° Asphalt 0 ft / 0 m 194 ft / 59 m
23 151 ft / 46 m 10,647 ft / 3,245 m 230.22° 227.37° Asphalt 509 ft / 155 m 240 ft / 73 m
33 151 ft / 46 m 12,013 ft / 3,662 m 332.91° 330.06° Asphalt 1,463 ft / 446 m 164 ft / 50 m

ENKR

Details ICAO ENKR (KKN)
Name HOYBUKTMOEN
Region Norway
Timezone Europe/Oslo (UTC+2.0)
Stats Elevation 283 ft / 86 m (AMSL)
Location 69.725215° 29.890800°
Runways 1
Magnetic Variation 15.039° E

METAR

ENKR 242150Z 27007KT 9999 SCT047 08/00 Q1023 RMK WIND 731FT 27010KT

Decode

TAF

Not found

Destination Runways

ID Width Length Bearing (true) Bearing (mag) Surface Threshold Offset Overrun Length
06 148 ft / 45 m 6,192 ft / 1,887 m 69.03° 53.99° Asphalt 184 ft / 56 m 0 ft / 0 m
24 148 ft / 45 m 6,192 ft / 1,887 m 249.07° 234.03° Asphalt 1,450 ft / 442 m 0 ft / 0 m

Approach Navaids

Runway Type Ident Frequency Range Bearing (true) Bearing (mag) Slope Elevation
24 Localiser KR 110.30 MHz 18 nm / 33 km 249.76° 234.72° - 283 ft / 86 m (AMSL)
24 Glidescope KR 110.30 MHz 10 nm / 19 km 249.05° 234.01° 3.40° 283 ft / 86 m (AMSL)